KGIF/GIF METAR and TAF weather

Enter ICAO airport designator
Station Type Date Time Source
KGIF METAR 2020/02/16 19:53 UTC NOAA

KGIF 161953Z AUTO 17009KT 10SM FEW100 28/16 A3004 RMK AO2 SLP170 T02830161


Station Type Date Time Source
KGIF Decoded METAR 2020/02/16 19:53 UTC NOAA

WINTER HAVENS GILBERT AIRPORT , FL, United States (KGIF) 28-04N 81-45W 43M
Feb 16, 2020 - 02:53 PM EST / 2020.02.16 1953 UTC
Wind: from the S (170 degrees) at 10 MPH (9 KT):0
Visibility: 10 mile(s):0
Sky conditions: mostly clear
Temperature: 82.9 F (28.3 C)
Dew Point: 61.0 F (16.1 C)
Relative Humidity: 47%
Pressure (altimeter): 30.04 in. Hg (1017 hPa)
ob: KGIF 161953Z AUTO 17009KT 10SM FEW100 28/16 A3004 RMK AO2 SLP170 T02830161
cycle: 20

Station Type Date Time Source
KGIF TAF UTC NOAA

Error!

Example: see airport list